createdAt,value
2022-10-21T00:01:29.205Z,7.48
2022-10-21T00:21:34.931Z,7.41
2022-10-21T00:41:41.111Z,7.47
2022-10-21T01:01:47.328Z,7.82
2022-10-21T01:21:53.027Z,7.98
2022-10-21T01:41:58.798Z,7.58
2022-10-21T02:02:04.486Z,7.88
2022-10-21T02:22:10.685Z,7.97
2022-10-21T02:42:16.914Z,7.26
2022-10-21T03:02:22.776Z,8.05
2022-10-21T03:22:28.492Z,7.96
2022-10-21T03:42:34.227Z,8.04
2022-10-21T04:02:40.751Z,7.74
2022-10-21T04:22:45.655Z,8.03
2022-10-21T04:42:51.863Z,8.36
2022-10-21T05:02:58.069Z,8.20
2022-10-21T05:23:03.827Z,8.22
2022-10-21T05:43:09.990Z,7.99
2022-10-21T06:03:15.774Z,8.19
2022-10-21T06:23:21.462Z,8.00
2022-10-21T06:43:27.236Z,8.17
2022-10-21T07:03:33.553Z,8.47
2022-10-21T07:23:39.826Z,7.95
2022-10-21T07:43:45.608Z,7.52
2022-10-21T08:03:51.339Z,7.27
2022-10-21T08:23:57.545Z,6.46
2022-10-21T08:44:03.263Z,6.57
2022-10-21T09:04:08.987Z,5.93
2022-10-21T09:24:14.752Z,5.73
2022-10-21T09:44:21.016Z,5.78
2022-10-21T10:04:26.746Z,5.92
2022-10-21T10:24:32.974Z,6.02
2022-10-21T10:44:38.780Z,5.79
2022-10-21T11:04:44.926Z,5.63
2022-10-21T11:24:50.644Z,5.98
2022-10-21T11:44:56.837Z,6.30
2022-10-21T12:05:03.036Z,5.02
2022-10-21T12:25:09.649Z,5.65
2022-10-21T12:45:15.366Z,5.72
2022-10-21T13:05:21.585Z,5.98
2022-10-21T13:25:27.804Z,5.66
2022-10-21T13:45:33.586Z,5.59
2022-10-21T14:05:39.319Z,5.75
2022-10-21T14:25:45.073Z,5.28
2022-10-21T14:45:50.839Z,5.84
2022-10-21T15:05:57.048Z,6.23
2022-10-21T15:26:03.212Z,6.45
2022-10-21T15:46:08.955Z,6.22
2022-10-21T16:06:14.709Z,6.29
2022-10-21T16:26:20.916Z,7.21
2022-10-21T16:46:26.642Z,8.92
2022-10-21T17:06:32.381Z,9.43
2022-10-21T17:26:38.155Z,10.00
2022-10-21T17:46:43.939Z,10.35
2022-10-21T18:06:49.667Z,11.42
2022-10-21T18:26:55.462Z,10.63
2022-10-21T18:47:01.659Z,11.30
2022-10-21T19:07:07.411Z,11.70
2022-10-21T19:27:13.179Z,11.20
2022-10-21T19:47:18.936Z,11.69
2022-10-21T20:07:24.664Z,11.54
2022-10-21T20:27:30.406Z,11.37
2022-10-21T20:47:36.609Z,11.68
2022-10-21T21:07:42.633Z,11.89
2022-10-21T21:27:48.517Z,11.17
2022-10-21T21:47:54.788Z,11.96
2022-10-21T22:08:00.989Z,12.02
2022-10-21T22:28:06.735Z,13.35
2022-10-21T22:48:12.559Z,12.35
2022-10-21T23:08:18.308Z,11.94
2022-10-21T23:28:24.559Z,12.55
2022-10-21T23:48:30.692Z,12.22
